sensor_id;sensor_type;location;lat;lon;timestamp;P1;durP1;ratioP1;P2;durP2;ratioP2
53052;SDS011;38934;52.690;6.184;2023-01-31T00:01:41;15.05;;;2.50;;
53052;SDS011;38934;52.690;6.184;2023-01-31T00:04:13;11.95;;;2.30;;
53052;SDS011;38934;52.690;6.184;2023-01-31T00:06:41;14.32;;;3.45;;
53052;SDS011;38934;52.690;6.184;2023-01-31T00:09:13;10.57;;;3.33;;
53052;SDS011;38934;52.690;6.184;2023-01-31T00:11:38;9.93;;;2.42;;
53052;SDS011;38934;52.690;6.184;2023-01-31T00:14:04;16.17;;;2.63;;
53052;SDS011;38934;52.690;6.184;2023-01-31T00:16:31;8.70;;;2.22;;
53052;SDS011;38934;52.690;6.184;2023-01-31T00:18:58;15.30;;;4.47;;
53052;SDS011;38934;52.690;6.184;2023-01-31T00:21:30;9.48;;;2.58;;
53052;SDS011;38934;52.690;6.184;2023-01-31T00:23:59;16.13;;;2.30;;
53052;SDS011;38934;52.690;6.184;2023-01-31T00:29:15;18.48;;;2.42;;
53052;SDS011;38934;52.690;6.184;2023-01-31T00:31:41;12.80;;;2.75;;
53052;SDS011;38934;52.690;6.184;2023-01-31T00:34:07;15.00;;;2.53;;
53052;SDS011;38934;52.690;6.184;2023-01-31T00:36:45;19.52;;;2.72;;
53052;SDS011;38934;52.690;6.184;2023-01-31T00:39:10;12.82;;;2.10;;
53052;SDS011;38934;52.690;6.184;2023-01-31T00:41:38;11.75;;;2.42;;
53052;SDS011;38934;52.690;6.184;2023-01-31T00:44:10;14.35;;;2.58;;
53052;SDS011;38934;52.690;6.184;2023-01-31T00:46:36;13.20;;;2.57;;
53052;SDS011;38934;52.690;6.184;2023-01-31T00:49:11;14.15;;;2.17;;
53052;SDS011;38934;52.690;6.184;2023-01-31T00:51:36;12.75;;;2.42;;
53052;SDS011;38934;52.690;6.184;2023-01-31T00:54:02;11.73;;;2.50;;
53052;SDS011;38934;52.690;6.184;2023-01-31T00:56:30;13.40;;;2.65;;
53052;SDS011;38934;52.690;6.184;2023-01-31T00:59:01;11.73;;;2.50;;
53052;SDS011;38934;52.690;6.184;2023-01-31T01:01:34;10.73;;;2.38;;
53052;SDS011;38934;52.690;6.184;2023-01-31T01:04:13;17.50;;;2.70;;
53052;SDS011;38934;52.690;6.184;2023-01-31T01:06:43;13.35;;;2.15;;
53052;SDS011;38934;52.690;6.184;2023-01-31T01:09:09;11.88;;;2.50;;
53052;SDS011;38934;52.690;6.184;2023-01-31T01:11:36;11.73;;;2.30;;
53052;SDS011;38934;52.690;6.184;2023-01-31T01:14:04;11.32;;;2.50;;
53052;SDS011;38934;52.690;6.184;2023-01-31T01:19:33;9.20;;;2.30;;
53052;SDS011;38934;52.690;6.184;2023-01-31T01:22:01;8.40;;;2.38;;
53052;SDS011;38934;52.690;6.184;2023-01-31T01:24:30;9.30;;;2.42;;
53052;SDS011;38934;52.690;6.184;2023-01-31T01:26:57;17.90;;;2.75;;
53052;SDS011;38934;52.690;6.184;2023-01-31T01:29:25;15.68;;;2.50;;
53052;SDS011;38934;52.690;6.184;2023-01-31T01:31:59;9.90;;;2.38;;
53052;SDS011;38934;52.690;6.184;2023-01-31T01:34:25;8.73;;;2.40;;
53052;SDS011;38934;52.690;6.184;2023-01-31T01:36:51;17.15;;;2.38;;
53052;SDS011;38934;52.690;6.184;2023-01-31T01:39:17;10.90;;;2.33;;
53052;SDS011;38934;52.690;6.184;2023-01-31T01:44:52;8.70;;;2.20;;
53052;SDS011;38934;52.690;6.184;2023-01-31T01:50:20;14.38;;;2.50;;
53052;SDS011;38934;52.690;6.184;2023-01-31T02:00:50;6.13;;;2.17;;
53052;SDS011;38934;52.690;6.184;2023-01-31T02:06:01;14.02;;;2.75;;
53052;SDS011;38934;52.690;6.184;2023-01-31T02:08:37;11.32;;;2.25;;
53052;SDS011;38934;52.690;6.184;2023-01-31T02:11:22;13.85;;;2.30;;
53052;SDS011;38934;52.690;6.184;2023-01-31T02:13:52;14.18;;;2.53;;
53052;SDS011;38934;52.690;6.184;2023-01-31T02:16:34;17.60;;;2.92;;
53052;SDS011;38934;52.690;6.184;2023-01-31T02:19:00;9.70;;;2.17;;
53052;SDS011;38934;52.690;6.184;2023-01-31T02:24:12;10.90;;;2.97;;
53052;SDS011;38934;52.690;6.184;2023-01-31T02:30:18;8.80;;;2.50;;
53052;SDS011;38934;52.690;6.184;2023-01-31T02:41:55;14.23;;;3.97;;
53052;SDS011;38934;52.690;6.184;2023-01-31T02:56:18;9.45;;;2.50;;
53052;SDS011;38934;52.690;6.184;2023-01-31T03:01:50;10.93;;;2.55;;
53052;SDS011;38934;52.690;6.184;2023-01-31T03:04:31;15.65;;;3.50;;
53052;SDS011;38934;52.690;6.184;2023-01-31T03:07:06;7.25;;;2.58;;
53052;SDS011;38934;52.690;6.184;2023-01-31T03:09:53;12.63;;;2.88;;
53052;SDS011;38934;52.690;6.184;2023-01-31T03:12:31;19.33;;;3.15;;
53052;SDS011;38934;52.690;6.184;2023-01-31T03:15:11;14.35;;;3.05;;
53052;SDS011;38934;52.690;6.184;2023-01-31T03:18:25;15.25;;;3.13;;
53052;SDS011;38934;52.690;6.184;2023-01-31T03:23:32;15.13;;;3.35;;
53052;SDS011;38934;52.690;6.184;2023-01-31T03:26:02;8.90;;;2.97;;
53052;SDS011;38934;52.690;6.184;2023-01-31T03:28:37;18.80;;;3.33;;
53052;SDS011;38934;52.690;6.184;2023-01-31T03:31:17;13.85;;;3.15;;
53052;SDS011;38934;52.690;6.184;2023-01-31T03:33:48;15.27;;;2.83;;
53052;SDS011;38934;52.690;6.184;2023-01-31T03:36:19;11.88;;;2.80;;
53052;SDS011;38934;52.690;6.184;2023-01-31T03:41:45;13.75;;;3.22;;
53052;SDS011;38934;52.690;6.184;2023-01-31T03:44:35;13.32;;;2.90;;
53052;SDS011;38934;52.690;6.184;2023-01-31T03:47:14;12.27;;;3.30;;
53052;SDS011;38934;52.690;6.184;2023-01-31T03:49:50;11.05;;;3.45;;
53052;SDS011;38934;52.690;6.184;2023-01-31T03:55:14;19.13;;;3.22;;
53052;SDS011;38934;52.690;6.184;2023-01-31T03:57:53;18.08;;;3.53;;
53052;SDS011;38934;52.690;6.184;2023-01-31T04:00:20;17.65;;;3.05;;
53052;SDS011;38934;52.690;6.184;2023-01-31T04:02:51;16.48;;;2.85;;
53052;SDS011;38934;52.690;6.184;2023-01-31T04:05:24;16.77;;;3.08;;
53052;SDS011;38934;52.690;6.184;2023-01-31T04:07:55;20.15;;;3.15;;
53052;SDS011;38934;52.690;6.184;2023-01-31T04:10:22;16.65;;;3.88;;
53052;SDS011;38934;52.690;6.184;2023-01-31T04:12:51;19.23;;;3.75;;
53052;SDS011;38934;52.690;6.184;2023-01-31T04:15:17;19.75;;;4.22;;
53052;SDS011;38934;52.690;6.184;2023-01-31T04:17:42;12.02;;;3.30;;
53052;SDS011;38934;52.690;6.184;2023-01-31T04:20:09;18.08;;;4.00;;
53052;SDS011;38934;52.690;6.184;2023-01-31T04:22:36;16.42;;;4.43;;
53052;SDS011;38934;52.690;6.184;2023-01-31T04:25:02;18.88;;;3.78;;
53052;SDS011;38934;52.690;6.184;2023-01-31T04:27:30;15.35;;;3.90;;
53052;SDS011;38934;52.690;6.184;2023-01-31T04:29:56;24.27;;;3.63;;
53052;SDS011;38934;52.690;6.184;2023-01-31T04:32:22;20.90;;;4.28;;
53052;SDS011;38934;52.690;6.184;2023-01-31T04:34:48;15.70;;;3.80;;
53052;SDS011;38934;52.690;6.184;2023-01-31T04:37:13;18.35;;;3.90;;
53052;SDS011;38934;52.690;6.184;2023-01-31T04:39:39;15.02;;;3.50;;
53052;SDS011;38934;52.690;6.184;2023-01-31T04:42:05;19.58;;;4.07;;
53052;SDS011;38934;52.690;6.184;2023-01-31T04:44:31;19.40;;;4.15;;
53052;SDS011;38934;52.690;6.184;2023-01-31T04:46:58;21.02;;;4.00;;
53052;SDS011;38934;52.690;6.184;2023-01-31T04:49:24;12.13;;;3.80;;
53052;SDS011;38934;52.690;6.184;2023-01-31T04:51:50;24.42;;;4.45;;
53052;SDS011;38934;52.690;6.184;2023-01-31T04:54:16;21.30;;;4.95;;
53052;SDS011;38934;52.690;6.184;2023-01-31T04:56:42;18.20;;;5.40;;
53052;SDS011;38934;52.690;6.184;2023-01-31T04:59:08;19.60;;;4.28;;
53052;SDS011;38934;52.690;6.184;2023-01-31T05:01:34;17.73;;;5.18;;
53052;SDS011;38934;52.690;6.184;2023-01-31T05:04:02;20.02;;;5.68;;
53052;SDS011;38934;52.690;6.184;2023-01-31T05:06:28;20.42;;;5.20;;
53052;SDS011;38934;52.690;6.184;2023-01-31T05:08:54;18.30;;;4.93;;
53052;SDS011;38934;52.690;6.184;2023-01-31T05:11:21;18.83;;;4.55;;
53052;SDS011;38934;52.690;6.184;2023-01-31T05:13:49;21.25;;;5.15;;
53052;SDS011;38934;52.690;6.184;2023-01-31T05:16:15;20.08;;;5.47;;
53052;SDS011;38934;52.690;6.184;2023-01-31T05:18:40;24.33;;;6.47;;
53052;SDS011;38934;52.690;6.184;2023-01-31T05:21:07;17.65;;;5.03;;
53052;SDS011;38934;52.690;6.184;2023-01-31T05:23:35;18.27;;;4.85;;
53052;SDS011;38934;52.690;6.184;2023-01-31T05:26:01;19.00;;;5.90;;
53052;SDS011;38934;52.690;6.184;2023-01-31T05:28:27;21.15;;;4.75;;
53052;SDS011;38934;52.690;6.184;2023-01-31T05:30:53;18.85;;;5.53;;
53052;SDS011;38934;52.690;6.184;2023-01-31T05:33:20;19.80;;;5.55;;
53052;SDS011;38934;52.690;6.184;2023-01-31T05:35:46;20.08;;;5.35;;
53052;SDS011;38934;52.690;6.184;2023-01-31T05:38:13;25.63;;;5.85;;
53052;SDS011;38934;52.690;6.184;2023-01-31T05:40:39;22.30;;;5.40;;
53052;SDS011;38934;52.690;6.184;2023-01-31T05:43:04;25.65;;;5.97;;
53052;SDS011;38934;52.690;6.184;2023-01-31T05:48:01;26.05;;;7.05;;
53052;SDS011;38934;52.690;6.184;2023-01-31T05:50:29;28.45;;;6.28;;
53052;SDS011;38934;52.690;6.184;2023-01-31T05:53:01;26.80;;;7.10;;
53052;SDS011;38934;52.690;6.184;2023-01-31T05:55:30;22.73;;;6.60;;
53052;SDS011;38934;52.690;6.184;2023-01-31T05:57:57;24.42;;;6.88;;
53052;SDS011;38934;52.690;6.184;2023-01-31T06:00:24;20.30;;;6.55;;
53052;SDS011;38934;52.690;6.184;2023-01-31T06:02:50;24.45;;;6.68;;
53052;SDS011;38934;52.690;6.184;2023-01-31T06:05:16;19.80;;;6.93;;
53052;SDS011;38934;52.690;6.184;2023-01-31T06:07:42;18.60;;;6.60;;
53052;SDS011;38934;52.690;6.184;2023-01-31T06:10:08;25.15;;;7.60;;
53052;SDS011;38934;52.690;6.184;2023-01-31T06:12:41;27.50;;;7.32;;
53052;SDS011;38934;52.690;6.184;2023-01-31T06:15:07;27.23;;;7.07;;
53052;SDS011;38934;52.690;6.184;2023-01-31T06:17:33;18.33;;;6.72;;
53052;SDS011;38934;52.690;6.184;2023-01-31T06:19:59;20.98;;;6.93;;
53052;SDS011;38934;52.690;6.184;2023-01-31T06:22:24;25.73;;;6.50;;
53052;SDS011;38934;52.690;6.184;2023-01-31T06:24:50;26.60;;;6.75;;
53052;SDS011;38934;52.690;6.184;2023-01-31T06:27:16;21.27;;;6.57;;
53052;SDS011;38934;52.690;6.184;2023-01-31T06:29:41;21.85;;;6.53;;
53052;SDS011;38934;52.690;6.184;2023-01-31T06:32:07;23.25;;;6.57;;
53052;SDS011;38934;52.690;6.184;2023-01-31T06:34:36;30.65;;;6.50;;
53052;SDS011;38934;52.690;6.184;2023-01-31T06:37:01;25.30;;;7.00;;
53052;SDS011;38934;52.690;6.184;2023-01-31T06:39:27;22.90;;;6.38;;
53052;SDS011;38934;52.690;6.184;2023-01-31T06:41:52;22.80;;;6.47;;
53052;SDS011;38934;52.690;6.184;2023-01-31T06:44:18;25.25;;;6.45;;
53052;SDS011;38934;52.690;6.184;2023-01-31T06:46:44;27.70;;;7.05;;
53052;SDS011;38934;52.690;6.184;2023-01-31T06:49:09;21.15;;;7.05;;
53052;SDS011;38934;52.690;6.184;2023-01-31T06:51:35;24.23;;;6.18;;
53052;SDS011;38934;52.690;6.184;2023-01-31T06:54:03;25.25;;;6.70;;
53052;SDS011;38934;52.690;6.184;2023-01-31T06:56:33;22.10;;;6.13;;
53052;SDS011;38934;52.690;6.184;2023-01-31T06:59:00;24.58;;;6.15;;
53052;SDS011;38934;52.690;6.184;2023-01-31T07:01:28;25.67;;;5.72;;
53052;SDS011;38934;52.690;6.184;2023-01-31T07:06:23;20.25;;;5.50;;
53052;SDS011;38934;52.690;6.184;2023-01-31T07:08:49;21.27;;;6.20;;
53052;SDS011;38934;52.690;6.184;2023-01-31T07:11:15;17.95;;;5.38;;
53052;SDS011;38934;52.690;6.184;2023-01-31T07:13:40;18.73;;;4.57;;
53052;SDS011;38934;52.690;6.184;2023-01-31T07:16:06;19.20;;;4.82;;
53052;SDS011;38934;52.690;6.184;2023-01-31T07:18:32;21.60;;;6.38;;
53052;SDS011;38934;52.690;6.184;2023-01-31T07:20:57;19.80;;;5.03;;
53052;SDS011;38934;52.690;6.184;2023-01-31T07:23:23;18.05;;;5.30;;
53052;SDS011;38934;52.690;6.184;2023-01-31T07:25:49;25.15;;;5.53;;
53052;SDS011;38934;52.690;6.184;2023-01-31T07:28:14;22.98;;;6.45;;
53052;SDS011;38934;52.690;6.184;2023-01-31T07:30:40;28.50;;;8.00;;
53052;SDS011;38934;52.690;6.184;2023-01-31T07:33:07;34.88;;;9.30;;
53052;SDS011;38934;52.690;6.184;2023-01-31T07:35:35;28.40;;;10.38;;
53052;SDS011;38934;52.690;6.184;2023-01-31T07:38:01;41.65;;;12.40;;
53052;SDS011;38934;52.690;6.184;2023-01-31T07:40:27;31.48;;;12.60;;
53052;SDS011;38934;52.690;6.184;2023-01-31T07:43:01;32.67;;;9.07;;
53052;SDS011;38934;52.690;6.184;2023-01-31T07:45:28;21.38;;;7.07;;
53052;SDS011;38934;52.690;6.184;2023-01-31T07:47:58;17.23;;;5.28;;
53052;SDS011;38934;52.690;6.184;2023-01-31T07:50:23;22.27;;;5.20;;
53052;SDS011;38934;52.690;6.184;2023-01-31T07:52:51;18.60;;;4.57;;
53052;SDS011;38934;52.690;6.184;2023-01-31T07:55:16;18.35;;;5.32;;
53052;SDS011;38934;52.690;6.184;2023-01-31T07:57:42;18.75;;;4.70;;
53052;SDS011;38934;52.690;6.184;2023-01-31T08:00:08;15.77;;;4.43;;
53052;SDS011;38934;52.690;6.184;2023-01-31T08:02:54;19.50;;;5.20;;
53052;SDS011;38934;52.690;6.184;2023-01-31T08:05:39;19.88;;;6.13;;
53052;SDS011;38934;52.690;6.184;2023-01-31T08:08:06;20.98;;;6.30;;
53052;SDS011;38934;52.690;6.184;2023-01-31T08:10:36;25.63;;;7.78;;
53052;SDS011;38934;52.690;6.184;2023-01-31T08:13:02;31.95;;;9.73;;
53052;SDS011;38934;52.690;6.184;2023-01-31T08:15:28;24.90;;;8.50;;
53052;SDS011;38934;52.690;6.184;2023-01-31T08:17:54;25.42;;;7.85;;
53052;SDS011;38934;52.690;6.184;2023-01-31T08:20:20;21.92;;;6.53;;
53052;SDS011;38934;52.690;6.184;2023-01-31T08:22:48;22.40;;;4.53;;
53052;SDS011;38934;52.690;6.184;2023-01-31T08:25:13;19.42;;;4.22;;
53052;SDS011;38934;52.690;6.184;2023-01-31T08:27:45;12.65;;;4.53;;
53052;SDS011;38934;52.690;6.184;2023-01-31T08:30:13;15.20;;;3.75;;
53052;SDS011;38934;52.690;6.184;2023-01-31T08:32:38;16.85;;;4.95;;
53052;SDS011;38934;52.690;6.184;2023-01-31T08:35:04;19.10;;;4.55;;
53052;SDS011;38934;52.690;6.184;2023-01-31T08:37:32;23.58;;;4.53;;
53052;SDS011;38934;52.690;6.184;2023-01-31T08:40:05;14.48;;;4.18;;
53052;SDS011;38934;52.690;6.184;2023-01-31T08:42:37;19.73;;;4.47;;
53052;SDS011;38934;52.690;6.184;2023-01-31T08:45:03;20.05;;;4.35;;
53052;SDS011;38934;52.690;6.184;2023-01-31T08:47:31;18.30;;;3.97;;
53052;SDS011;38934;52.690;6.184;2023-01-31T08:49:57;12.95;;;3.83;;
53052;SDS011;38934;52.690;6.184;2023-01-31T08:52:22;14.20;;;3.95;;
53052;SDS011;38934;52.690;6.184;2023-01-31T08:54:48;14.32;;;4.28;;
53052;SDS011;38934;52.690;6.184;2023-01-31T08:57:15;16.80;;;3.75;;
53052;SDS011;38934;52.690;6.184;2023-01-31T08:59:41;15.90;;;4.38;;
53052;SDS011;38934;52.690;6.184;2023-01-31T09:02:09;17.55;;;4.00;;
53052;SDS011;38934;52.690;6.184;2023-01-31T09:04:35;12.50;;;3.85;;
53052;SDS011;38934;52.690;6.184;2023-01-31T09:07:01;17.05;;;3.90;;
53052;SDS011;38934;52.690;6.184;2023-01-31T09:09:28;13.10;;;3.50;;
53052;SDS011;38934;52.690;6.184;2023-01-31T09:11:53;16.02;;;4.80;;
53052;SDS011;38934;52.690;6.184;2023-01-31T09:14:19;11.27;;;3.65;;
53052;SDS011;38934;52.690;6.184;2023-01-31T09:16:47;16.38;;;3.92;;
53052;SDS011;38934;52.690;6.184;2023-01-31T09:19:12;14.52;;;3.92;;
53052;SDS011;38934;52.690;6.184;2023-01-31T09:24:08;14.25;;;3.55;;
53052;SDS011;38934;52.690;6.184;2023-01-31T09:26:34;14.27;;;3.88;;
53052;SDS011;38934;52.690;6.184;2023-01-31T09:29:02;15.45;;;3.97;;
53052;SDS011;38934;52.690;6.184;2023-01-31T09:31:27;15.60;;;3.38;;
53052;SDS011;38934;52.690;6.184;2023-01-31T09:33:56;11.02;;;3.63;;
53052;SDS011;38934;52.690;6.184;2023-01-31T09:36:26;16.80;;;3.65;;
53052;SDS011;38934;52.690;6.184;2023-01-31T09:38:54;11.65;;;4.35;;
53052;SDS011;38934;52.690;6.184;2023-01-31T09:41:35;14.55;;;3.10;;
53052;SDS011;38934;52.690;6.184;2023-01-31T09:44:19;11.07;;;3.35;;
53052;SDS011;38934;52.690;6.184;2023-01-31T09:47:16;16.90;;;4.63;;
53052;SDS011;38934;52.690;6.184;2023-01-31T09:50:00;20.05;;;5.00;;
53052;SDS011;38934;52.690;6.184;2023-01-31T09:52:48;18.58;;;6.50;;
53052;SDS011;38934;52.690;6.184;2023-01-31T09:55:14;17.90;;;5.35;;
53052;SDS011;38934;52.690;6.184;2023-01-31T10:03:48;14.98;;;3.80;;
53052;SDS011;38934;52.690;6.184;2023-01-31T10:18:35;14.32;;;3.95;;
53052;SDS011;38934;52.690;6.184;2023-01-31T10:21:31;15.07;;;3.92;;
53052;SDS011;38934;52.690;6.184;2023-01-31T10:26:53;19.35;;;4.20;;
53052;SDS011;38934;52.690;6.184;2023-01-31T10:29:32;19.75;;;4.05;;
53052;SDS011;38934;52.690;6.184;2023-01-31T10:37:59;19.17;;;3.72;;
53052;SDS011;38934;52.690;6.184;2023-01-31T10:40:38;11.52;;;3.63;;
53052;SDS011;38934;52.690;6.184;2023-01-31T10:43:28;12.27;;;3.85;;
53052;SDS011;38934;52.690;6.184;2023-01-31T10:46:14;16.98;;;3.83;;
53052;SDS011;38934;52.690;6.184;2023-01-31T10:48:41;16.88;;;4.35;;
53052;SDS011;38934;52.690;6.184;2023-01-31T10:57:20;14.65;;;3.80;;
53052;SDS011;38934;52.690;6.184;2023-01-31T10:59:46;19.20;;;4.22;;
53052;SDS011;38934;52.690;6.184;2023-01-31T11:02:31;15.68;;;4.43;;
53052;SDS011;38934;52.690;6.184;2023-01-31T11:07:27;18.75;;;3.90;;
53052;SDS011;38934;52.690;6.184;2023-01-31T11:09:54;18.88;;;4.13;;
53052;SDS011;38934;52.690;6.184;2023-01-31T11:13:10;16.70;;;3.80;;
53052;SDS011;38934;52.690;6.184;2023-01-31T11:15:19;20.23;;;4.43;;
53052;SDS011;38934;52.690;6.184;2023-01-31T11:21:24;15.13;;;3.67;;
53052;SDS011;38934;52.690;6.184;2023-01-31T11:26:33;13.52;;;4.32;;
53052;SDS011;38934;52.690;6.184;2023-01-31T11:32:00;18.75;;;3.83;;
53052;SDS011;38934;52.690;6.184;2023-01-31T11:34:29;15.75;;;4.18;;
53052;SDS011;38934;52.690;6.184;2023-01-31T11:37:31;20.35;;;3.70;;
53052;SDS011;38934;52.690;6.184;2023-01-31T11:40:23;13.57;;;3.90;;
53052;SDS011;38934;52.690;6.184;2023-01-31T11:43:32;12.82;;;3.47;;
53052;SDS011;38934;52.690;6.184;2023-01-31T11:46:07;17.20;;;4.03;;
53052;SDS011;38934;52.690;6.184;2023-01-31T11:48:42;16.73;;;3.70;;
53052;SDS011;38934;52.690;6.184;2023-01-31T11:51:27;14.05;;;3.75;;
53052;SDS011;38934;52.690;6.184;2023-01-31T11:53:55;19.20;;;3.97;;
53052;SDS011;38934;52.690;6.184;2023-01-31T11:56:23;11.00;;;3.45;;
53052;SDS011;38934;52.690;6.184;2023-01-31T11:58:52;20.55;;;4.10;;
53052;SDS011;38934;52.690;6.184;2023-01-31T12:01:24;17.23;;;3.60;;
53052;SDS011;38934;52.690;6.184;2023-01-31T12:03:55;10.30;;;3.58;;
53052;SDS011;38934;52.690;6.184;2023-01-31T12:08:58;17.75;;;3.40;;
53052;SDS011;38934;52.690;6.184;2023-01-31T12:11:32;12.13;;;3.65;;
53052;SDS011;38934;52.690;6.184;2023-01-31T12:14:05;17.90;;;3.47;;
53052;SDS011;38934;52.690;6.184;2023-01-31T12:16:39;14.68;;;3.22;;
53052;SDS011;38934;52.690;6.184;2023-01-31T12:41:38;17.55;;;3.15;;
53052;SDS011;38934;52.690;6.184;2023-01-31T12:47:26;14.60;;;3.38;;
53052;SDS011;38934;52.690;6.184;2023-01-31T12:50:09;18.50;;;3.78;;
53052;SDS011;38934;52.690;6.184;2023-01-31T12:52:44;10.80;;;2.97;;
53052;SDS011;38934;52.690;6.184;2023-01-31T12:58:37;11.40;;;3.03;;
53052;SDS011;38934;52.690;6.184;2023-01-31T13:06:25;11.70;;;3.22;;
53052;SDS011;38934;52.690;6.184;2023-01-31T13:11:36;13.73;;;3.17;;
53052;SDS011;38934;52.690;6.184;2023-01-31T13:14:19;15.80;;;3.17;;
53052;SDS011;38934;52.690;6.184;2023-01-31T13:16:50;12.73;;;3.28;;
53052;SDS011;38934;52.690;6.184;2023-01-31T13:19:24;12.60;;;2.70;;
53052;SDS011;38934;52.690;6.184;2023-01-31T13:21:57;12.02;;;3.33;;
53052;SDS011;38934;52.690;6.184;2023-01-31T13:24:31;13.07;;;3.15;;
53052;SDS011;38934;52.690;6.184;2023-01-31T13:27:36;13.20;;;3.20;;
53052;SDS011;38934;52.690;6.184;2023-01-31T13:30:04;7.97;;;3.13;;
53052;SDS011;38934;52.690;6.184;2023-01-31T13:32:41;15.00;;;3.50;;
53052;SDS011;38934;52.690;6.184;2023-01-31T13:38:02;11.10;;;3.00;;
53052;SDS011;38934;52.690;6.184;2023-01-31T13:40:37;9.50;;;3.55;;
53052;SDS011;38934;52.690;6.184;2023-01-31T13:43:12;16.35;;;5.50;;
53052;SDS011;38934;52.690;6.184;2023-01-31T13:45:43;21.40;;;6.55;;
53052;SDS011;38934;52.690;6.184;2023-01-31T13:53:47;11.95;;;3.50;;
53052;SDS011;38934;52.690;6.184;2023-01-31T13:56:33;10.98;;;3.63;;
53052;SDS011;38934;52.690;6.184;2023-01-31T13:59:00;15.95;;;3.20;;
53052;SDS011;38934;52.690;6.184;2023-01-31T14:01:27;10.93;;;2.85;;
53052;SDS011;38934;52.690;6.184;2023-01-31T14:12:30;8.73;;;2.88;;
53052;SDS011;38934;52.690;6.184;2023-01-31T14:14:59;7.40;;;2.70;;
53052;SDS011;38934;52.690;6.184;2023-01-31T14:22:19;12.07;;;3.20;;
53052;SDS011;38934;52.690;6.184;2023-01-31T14:25:38;11.52;;;3.35;;
53052;SDS011;38934;52.690;6.184;2023-01-31T14:28:08;10.27;;;2.90;;
53052;SDS011;38934;52.690;6.184;2023-01-31T14:30:36;12.18;;;4.07;;
53052;SDS011;38934;52.690;6.184;2023-01-31T14:35:44;14.00;;;4.25;;
53052;SDS011;38934;52.690;6.184;2023-01-31T14:58:05;11.73;;;3.67;;
53052;SDS011;38934;52.690;6.184;2023-01-31T15:00:45;13.23;;;3.70;;
53052;SDS011;38934;52.690;6.184;2023-01-31T15:06:37;20.52;;;4.65;;
53052;SDS011;38934;52.690;6.184;2023-01-31T15:11:40;21.08;;;4.57;;
53052;SDS011;38934;52.690;6.184;2023-01-31T15:14:18;21.42;;;4.95;;
53052;SDS011;38934;52.690;6.184;2023-01-31T15:16:53;19.60;;;5.32;;
53052;SDS011;38934;52.690;6.184;2023-01-31T15:19:42;14.82;;;3.40;;
53052;SDS011;38934;52.690;6.184;2023-01-31T15:22:17;13.50;;;3.28;;
53052;SDS011;38934;52.690;6.184;2023-01-31T15:24:46;13.18;;;3.50;;
53052;SDS011;38934;52.690;6.184;2023-01-31T15:27:18;18.73;;;3.58;;
53052;SDS011;38934;52.690;6.184;2023-01-31T15:30:34;17.27;;;3.95;;
53052;SDS011;38934;52.690;6.184;2023-01-31T15:32:45;15.60;;;3.17;;
53052;SDS011;38934;52.690;6.184;2023-01-31T15:35:30;14.75;;;3.40;;
53052;SDS011;38934;52.690;6.184;2023-01-31T15:43:41;17.88;;;4.30;;
53052;SDS011;38934;52.690;6.184;2023-01-31T15:49:01;16.98;;;3.47;;
53052;SDS011;38934;52.690;6.184;2023-01-31T15:51:29;15.23;;;3.55;;
53052;SDS011;38934;52.690;6.184;2023-01-31T15:56:31;15.80;;;3.85;;
53052;SDS011;38934;52.690;6.184;2023-01-31T15:58:58;19.42;;;4.47;;
53052;SDS011;38934;52.690;6.184;2023-01-31T16:01:26;15.98;;;4.13;;
53052;SDS011;38934;52.690;6.184;2023-01-31T16:03:55;14.93;;;3.63;;
53052;SDS011;38934;52.690;6.184;2023-01-31T16:06:35;14.27;;;3.80;;
53052;SDS011;38934;52.690;6.184;2023-01-31T16:11:55;14.13;;;3.65;;
53052;SDS011;38934;52.690;6.184;2023-01-31T16:14:22;16.80;;;4.15;;
53052;SDS011;38934;52.690;6.184;2023-01-31T16:16:55;16.30;;;3.33;;
53052;SDS011;38934;52.690;6.184;2023-01-31T16:22:20;13.25;;;3.10;;
53052;SDS011;38934;52.690;6.184;2023-01-31T16:24:53;17.83;;;3.80;;
53052;SDS011;38934;52.690;6.184;2023-01-31T16:27:21;19.67;;;4.38;;
53052;SDS011;38934;52.690;6.184;2023-01-31T16:29:49;17.15;;;3.75;;
53052;SDS011;38934;52.690;6.184;2023-01-31T16:34:44;16.92;;;4.07;;
53052;SDS011;38934;52.690;6.184;2023-01-31T16:37:32;16.00;;;4.25;;
53052;SDS011;38934;52.690;6.184;2023-01-31T16:40:04;16.35;;;4.38;;
53052;SDS011;38934;52.690;6.184;2023-01-31T16:42:48;14.05;;;3.53;;
53052;SDS011;38934;52.690;6.184;2023-01-31T16:45:25;20.80;;;3.78;;
53052;SDS011;38934;52.690;6.184;2023-01-31T16:50:57;15.70;;;3.33;;
53052;SDS011;38934;52.690;6.184;2023-01-31T16:56:38;15.20;;;3.60;;
53052;SDS011;38934;52.690;6.184;2023-01-31T16:59:36;15.70;;;3.30;;
53052;SDS011;38934;52.690;6.184;2023-01-31T17:02:00;15.88;;;3.22;;
53052;SDS011;38934;52.690;6.184;2023-01-31T17:04:32;22.10;;;3.97;;
53052;SDS011;38934;52.690;6.184;2023-01-31T17:07:02;19.30;;;4.00;;
53052;SDS011;38934;52.690;6.184;2023-01-31T17:09:33;17.77;;;3.38;;
53052;SDS011;38934;52.690;6.184;2023-01-31T17:12:00;22.33;;;3.75;;
53052;SDS011;38934;52.690;6.184;2023-01-31T17:14:26;16.98;;;3.67;;
53052;SDS011;38934;52.690;6.184;2023-01-31T17:16:52;22.02;;;4.13;;
53052;SDS011;38934;52.690;6.184;2023-01-31T17:19:23;18.95;;;3.63;;
53052;SDS011;38934;52.690;6.184;2023-01-31T17:27:04;16.27;;;2.97;;
53052;SDS011;38934;52.690;6.184;2023-01-31T17:29:31;16.00;;;3.78;;
53052;SDS011;38934;52.690;6.184;2023-01-31T17:32:10;18.90;;;3.80;;
53052;SDS011;38934;52.690;6.184;2023-01-31T17:34:40;14.25;;;2.90;;
53052;SDS011;38934;52.690;6.184;2023-01-31T17:37:09;18.50;;;3.20;;
53052;SDS011;38934;52.690;6.184;2023-01-31T17:39:37;16.95;;;3.67;;
53052;SDS011;38934;52.690;6.184;2023-01-31T17:42:04;18.23;;;3.35;;
53052;SDS011;38934;52.690;6.184;2023-01-31T17:44:31;22.77;;;3.85;;
53052;SDS011;38934;52.690;6.184;2023-01-31T17:46:56;20.80;;;4.00;;
53052;SDS011;38934;52.690;6.184;2023-01-31T17:49:22;17.83;;;4.07;;
53052;SDS011;38934;52.690;6.184;2023-01-31T17:51:50;16.67;;;3.67;;
53052;SDS011;38934;52.690;6.184;2023-01-31T17:54:27;18.33;;;3.30;;
53052;SDS011;38934;52.690;6.184;2023-01-31T17:56:53;15.85;;;3.72;;
53052;SDS011;38934;52.690;6.184;2023-01-31T17:59:19;14.32;;;3.20;;
53052;SDS011;38934;52.690;6.184;2023-01-31T18:04:53;15.23;;;3.33;;
53052;SDS011;38934;52.690;6.184;2023-01-31T18:07:30;21.73;;;3.88;;
53052;SDS011;38934;52.690;6.184;2023-01-31T18:10:06;13.88;;;3.05;;
53052;SDS011;38934;52.690;6.184;2023-01-31T18:12:48;12.75;;;3.22;;
53052;SDS011;38934;52.690;6.184;2023-01-31T18:15:14;23.23;;;4.40;;
53052;SDS011;38934;52.690;6.184;2023-01-31T18:17:45;21.08;;;3.75;;
53052;SDS011;38934;52.690;6.184;2023-01-31T18:20:10;22.58;;;3.90;;
53052;SDS011;38934;52.690;6.184;2023-01-31T18:22:55;13.80;;;2.90;;
53052;SDS011;38934;52.690;6.184;2023-01-31T18:36:38;15.05;;;3.17;;
53052;SDS011;38934;52.690;6.184;2023-01-31T18:45:11;16.85;;;3.45;;
53052;SDS011;38934;52.690;6.184;2023-01-31T18:47:37;23.38;;;3.47;;
53052;SDS011;38934;52.690;6.184;2023-01-31T18:50:05;15.45;;;3.22;;
53052;SDS011;38934;52.690;6.184;2023-01-31T18:55:17;15.60;;;3.70;;
53052;SDS011;38934;52.690;6.184;2023-01-31T18:57:43;19.92;;;4.22;;
53052;SDS011;38934;52.690;6.184;2023-01-31T19:02:40;12.35;;;4.35;;
53052;SDS011;38934;52.690;6.184;2023-01-31T19:11:11;19.50;;;4.13;;
53052;SDS011;38934;52.690;6.184;2023-01-31T19:16:21;21.52;;;4.45;;
53052;SDS011;38934;52.690;6.184;2023-01-31T19:18:55;22.02;;;3.88;;
53052;SDS011;38934;52.690;6.184;2023-01-31T19:21:31;16.47;;;3.93;;
53052;SDS011;38934;52.690;6.184;2023-01-31T19:26:37;18.27;;;4.38;;
53052;SDS011;38934;52.690;6.184;2023-01-31T19:29:04;19.58;;;3.95;;